createdAt,value
2022-07-27T00:01:40.694Z,11.60
2022-07-27T00:04:17.156Z,11.23
2022-07-27T00:06:44.517Z,12.18
2022-07-27T00:09:11.900Z,11.68
2022-07-27T00:11:38.832Z,11.80
2022-07-27T00:14:05.578Z,12.40
2022-07-27T00:16:32.609Z,12.02
2022-07-27T00:18:59.305Z,11.35
2022-07-27T00:21:26.794Z,10.75
2022-07-27T00:23:54.513Z,12.02
2022-07-27T00:26:21.568Z,12.23
2022-07-27T00:28:49.235Z,11.30
2022-07-27T00:31:16.646Z,12.07
2022-07-27T00:33:43.339Z,11.35
2022-07-27T00:36:10.293Z,12.07
2022-07-27T00:38:36.944Z,12.00
2022-07-27T00:41:03.663Z,11.55
2022-07-27T00:43:30.477Z,11.07
2022-07-27T00:45:57.224Z,10.82
2022-07-27T00:48:24.379Z,11.55
2022-07-27T00:50:53.479Z,10.88
2022-07-27T00:53:20.429Z,11.38
2022-07-27T00:55:47.108Z,11.82
2022-07-27T00:58:14.337Z,10.95
2022-07-27T01:00:40.977Z,11.52
2022-07-27T01:03:09.341Z,10.65
2022-07-27T01:05:42.571Z,11.35
2022-07-27T01:08:12.744Z,11.85
2022-07-27T01:10:41.358Z,12.00
2022-07-27T01:13:13.077Z,12.52
2022-07-27T01:15:40.925Z,11.85
2022-07-27T01:18:27.028Z,12.82
2022-07-27T01:20:54.584Z,11.77
2022-07-27T01:23:22.660Z,12.18
2022-07-27T01:25:49.415Z,11.80
2022-07-27T01:28:16.256Z,12.27
2022-07-27T01:30:42.948Z,12.30
2022-07-27T01:33:10.625Z,11.77
2022-07-27T01:35:39.735Z,11.65
2022-07-27T01:38:09.305Z,11.85
2022-07-27T01:40:36.986Z,11.43
2022-07-27T01:43:06.826Z,12.63
2022-07-27T01:45:33.543Z,12.10
2022-07-27T01:48:00.379Z,11.57
2022-07-27T01:50:27.336Z,11.60
2022-07-27T01:52:53.996Z,10.60
2022-07-27T01:55:20.683Z,9.23
2022-07-27T01:57:47.348Z,9.00
2022-07-27T02:00:14.280Z,7.97
2022-07-27T02:02:41.236Z,7.85
2022-07-27T02:05:12.079Z,7.45
2022-07-27T02:07:40.362Z,6.70
2022-07-27T02:10:07.549Z,6.45
2022-07-27T02:12:37.071Z,7.30
2022-07-27T02:15:15.052Z,5.90
2022-07-27T02:17:43.268Z,6.40
2022-07-27T02:20:11.072Z,6.57
2022-07-27T02:22:37.948Z,6.47
2022-07-27T02:25:06.235Z,6.97
2022-07-27T02:27:33.099Z,6.35
2022-07-27T02:29:59.735Z,7.32
2022-07-27T02:32:26.517Z,6.80
2022-07-27T02:34:53.295Z,6.47
2022-07-27T02:37:20.070Z,7.45
2022-07-27T02:39:46.769Z,7.82
2022-07-27T02:42:13.527Z,6.72
2022-07-27T02:44:40.476Z,6.43
2022-07-27T02:47:07.323Z,7.38
2022-07-27T02:49:34.009Z,7.45
2022-07-27T02:52:00.823Z,7.05
2022-07-27T02:54:27.853Z,6.30
2022-07-27T02:56:56.029Z,6.88
2022-07-27T02:59:23.382Z,6.75
2022-07-27T03:01:50.428Z,7.13
2022-07-27T03:04:18.626Z,6.82
2022-07-27T03:06:45.617Z,7.18
2022-07-27T03:09:12.409Z,7.03
2022-07-27T03:11:39.445Z,6.97
2022-07-27T03:14:06.254Z,7.25
2022-07-27T03:16:32.921Z,6.57
2022-07-27T03:18:59.728Z,6.15
2022-07-27T03:21:26.570Z,7.50
2022-07-27T03:23:53.398Z,7.13
2022-07-27T03:26:20.064Z,7.68
2022-07-27T03:28:46.693Z,7.82
2022-07-27T03:31:13.453Z,6.72
2022-07-27T03:33:40.236Z,6.50
2022-07-27T03:36:07.405Z,8.15
2022-07-27T03:38:34.375Z,7.30
2022-07-27T03:41:01.055Z,7.75
2022-07-27T03:43:27.763Z,6.72
2022-07-27T03:45:54.473Z,7.15
2022-07-27T03:48:21.198Z,7.00
2022-07-27T03:50:47.807Z,6.65
2022-07-27T03:53:14.918Z,6.65
2022-07-27T03:55:41.540Z,7.70
2022-07-27T03:58:08.142Z,6.38
2022-07-27T04:00:34.885Z,6.28
2022-07-27T04:03:01.722Z,6.20
2022-07-27T04:05:29.420Z,6.55
2022-07-27T04:07:56.781Z,6.53
2022-07-27T04:10:25.549Z,6.22
2022-07-27T04:12:57.552Z,6.13
2022-07-27T04:15:25.319Z,6.65
2022-07-27T04:17:55.079Z,6.15
2022-07-27T04:20:24.992Z,7.13
2022-07-27T04:22:51.712Z,6.63
2022-07-27T04:25:18.380Z,6.50
2022-07-27T04:27:44.957Z,6.90
2022-07-27T04:30:12.046Z,6.82
2022-07-27T04:32:39.224Z,7.00
2022-07-27T04:35:07.585Z,7.10
2022-07-27T04:37:35.418Z,6.50
2022-07-27T04:40:02.987Z,6.30
2022-07-27T04:42:30.086Z,6.25
2022-07-27T04:44:57.057Z,6.40
2022-07-27T04:47:23.753Z,6.45
2022-07-27T04:49:50.420Z,6.78
2022-07-27T04:52:17.780Z,6.50
2022-07-27T04:54:45.699Z,7.00
2022-07-27T04:57:12.330Z,7.45
2022-07-27T04:59:38.935Z,7.13
2022-07-27T05:02:05.779Z,7.68
2022-07-27T05:04:32.517Z,6.85
2022-07-27T05:06:59.214Z,7.03
2022-07-27T05:09:26.054Z,7.20
2022-07-27T05:11:53.270Z,6.47
2022-07-27T05:14:21.548Z,6.70
2022-07-27T05:16:48.765Z,6.35
2022-07-27T05:19:15.665Z,6.15
2022-07-27T05:21:43.137Z,6.78
2022-07-27T05:24:10.215Z,7.13
2022-07-27T05:26:37.764Z,6.75
2022-07-27T05:29:04.587Z,6.93
2022-07-27T05:31:31.432Z,6.93
2022-07-27T05:33:58.657Z,6.82
2022-07-27T05:36:25.726Z,6.43
2022-07-27T05:38:52.395Z,6.57
2022-07-27T05:41:26.465Z,6.85
2022-07-27T05:43:57.030Z,6.82
2022-07-27T05:46:23.715Z,7.43
2022-07-27T05:48:50.398Z,6.70
2022-07-27T05:51:17.483Z,7.30
2022-07-27T05:53:44.142Z,6.97
2022-07-27T05:56:11.446Z,7.18
2022-07-27T05:58:38.153Z,7.18
2022-07-27T06:01:04.821Z,7.07
2022-07-27T06:03:31.808Z,6.82
2022-07-27T06:06:16.973Z,7.32
2022-07-27T06:08:44.407Z,7.57
2022-07-27T06:11:11.125Z,8.52
2022-07-27T06:13:41.955Z,8.98
2022-07-27T06:16:09.904Z,7.93
2022-07-27T06:18:36.620Z,7.75
2022-07-27T06:21:03.447Z,7.25
2022-07-27T06:23:30.618Z,10.13
2022-07-27T06:25:57.663Z,7.10
2022-07-27T06:28:24.331Z,7.60
2022-07-27T06:30:51.061Z,6.90
2022-07-27T06:33:17.675Z,8.27
2022-07-27T06:35:44.287Z,8.43
2022-07-27T06:38:12.347Z,7.10
2022-07-27T06:40:40.103Z,7.82
2022-07-27T06:43:06.861Z,7.82
2022-07-27T06:45:33.531Z,6.70
2022-07-27T06:48:00.147Z,7.15
2022-07-27T06:50:27.073Z,6.82
2022-07-27T06:52:53.758Z,7.80
2022-07-27T06:55:20.373Z,7.43
2022-07-27T06:57:46.998Z,6.70
2022-07-27T07:00:14.538Z,6.57
2022-07-27T07:02:55.377Z,7.20
2022-07-27T07:05:23.276Z,6.43
2022-07-27T07:07:50.258Z,6.45
2022-07-27T07:10:17.054Z,6.70
2022-07-27T07:12:43.758Z,6.53
2022-07-27T07:15:11.057Z,6.75
2022-07-27T07:17:37.717Z,6.80
2022-07-27T07:20:06.931Z,6.25
2022-07-27T07:22:34.402Z,7.82
2022-07-27T07:25:03.075Z,6.72
2022-07-27T07:27:30.034Z,8.07
2022-07-27T07:29:57.992Z,6.95
2022-07-27T07:32:28.975Z,8.90
2022-07-27T07:34:59.733Z,6.70
2022-07-27T07:37:33.476Z,6.05
2022-07-27T07:40:18.870Z,6.22
2022-07-27T07:43:00.269Z,7.15
2022-07-27T07:45:28.380Z,6.70
2022-07-27T07:47:55.527Z,7.05
2022-07-27T07:50:23.296Z,6.68
2022-07-27T07:52:54.050Z,7.00
2022-07-27T07:55:26.532Z,7.43
2022-07-27T07:57:53.605Z,6.18
2022-07-27T08:00:21.831Z,6.60
2022-07-27T08:02:51.397Z,6.15
2022-07-27T08:05:18.403Z,6.70
2022-07-27T08:07:45.852Z,6.82
2022-07-27T08:10:15.076Z,6.25
2022-07-27T08:12:44.954Z,7.05
2022-07-27T08:15:13.740Z,6.38
2022-07-27T08:17:40.858Z,6.05
2022-07-27T08:20:08.974Z,6.65
2022-07-27T08:22:35.735Z,6.63
2022-07-27T08:25:03.343Z,7.78
2022-07-27T08:27:30.086Z,6.15
2022-07-27T08:30:08.502Z,7.35
2022-07-27T08:32:55.037Z,6.38
2022-07-27T08:35:22.355Z,8.70
2022-07-27T08:37:49.345Z,6.22
2022-07-27T08:43:05.088Z,7.68
2022-07-27T08:45:32.563Z,7.72
2022-07-27T08:47:59.337Z,6.32
2022-07-27T08:50:30.826Z,6.22
2022-07-27T08:53:07.421Z,5.60
2022-07-27T08:55:39.045Z,7.78
2022-07-27T08:58:07.353Z,6.80
2022-07-27T09:00:36.184Z,6.30
2022-07-27T09:03:03.321Z,6.32
2022-07-27T09:05:36.766Z,6.32
2022-07-27T09:08:24.697Z,6.50
2022-07-27T09:10:54.584Z,5.97
2022-07-27T09:13:30.307Z,6.25
2022-07-27T09:16:19.760Z,5.78
2022-07-27T09:18:48.449Z,6.10
2022-07-27T09:21:17.806Z,5.90
2022-07-27T09:23:48.257Z,7.50
2022-07-27T09:26:31.646Z,5.95
2022-07-27T09:29:19.979Z,6.25
2022-07-27T09:31:49.386Z,6.70
2022-07-27T09:34:34.351Z,6.30
2022-07-27T09:37:06.411Z,5.32
2022-07-27T09:39:33.296Z,6.22
2022-07-27T09:42:02.822Z,6.10
2022-07-27T09:44:43.968Z,5.90
2022-07-27T09:50:16.554Z,6.63
2022-07-27T09:52:43.739Z,5.95
2022-07-27T09:55:10.679Z,6.15
2022-07-27T09:57:58.179Z,5.75
2022-07-27T10:00:26.370Z,6.05
2022-07-27T10:02:54.005Z,5.80
2022-07-27T10:05:22.899Z,6.28
2022-07-27T10:07:51.573Z,5.82
2022-07-27T10:10:18.263Z,6.22
2022-07-27T10:12:50.537Z,5.85
2022-07-27T10:15:20.669Z,5.95
2022-07-27T10:17:51.628Z,6.32
2022-07-27T10:20:18.723Z,5.93
2022-07-27T10:23:07.523Z,6.00
2022-07-27T10:25:38.085Z,6.22
2022-07-27T10:28:13.330Z,7.88
2022-07-27T10:30:40.146Z,6.70
2022-07-27T10:33:37.974Z,6.05
2022-07-27T10:36:05.349Z,6.10
2022-07-27T10:38:52.273Z,6.25
2022-07-27T10:41:24.907Z,6.25
2022-07-27T10:44:17.792Z,6.70
2022-07-27T10:46:46.815Z,6.30
2022-07-27T10:49:26.235Z,6.70
2022-07-27T10:51:53.990Z,6.32
2022-07-27T10:54:38.263Z,7.97
2022-07-27T10:57:09.171Z,6.03
2022-07-27T11:00:08.520Z,6.38
2022-07-27T11:02:39.623Z,6.45
2022-07-27T11:05:07.023Z,5.85
2022-07-27T11:07:44.398Z,7.07
2022-07-27T11:10:13.047Z,7.22
2022-07-27T11:12:41.098Z,8.07
2022-07-27T11:15:07.927Z,6.63
2022-07-27T11:17:59.579Z,6.75
2022-07-27T11:20:25.926Z,7.07
2022-07-27T11:23:47.787Z,7.20
2022-07-27T11:25:41.017Z,6.57
2022-07-27T11:28:07.714Z,6.55
2022-07-27T11:30:34.510Z,7.47
2022-07-27T11:33:04.028Z,7.05
2022-07-27T11:35:30.763Z,6.63
2022-07-27T11:38:02.198Z,6.95
2022-07-27T11:43:38.899Z,7.80
2022-07-27T11:46:23.479Z,6.90
2022-07-27T11:49:17.472Z,6.68
2022-07-27T11:51:46.312Z,6.82
2022-07-27T11:54:19.698Z,7.20
2022-07-27T11:56:49.463Z,7.18
2022-07-27T11:59:30.063Z,6.85
2022-07-27T12:01:59.702Z,7.72
2022-07-27T12:04:30.416Z,6.80
2022-07-27T12:07:05.875Z,6.45
2022-07-27T12:09:38.674Z,7.05
2022-07-27T12:12:34.842Z,7.72
2022-07-27T12:15:44.303Z,6.72
2022-07-27T12:18:02.611Z,6.55
2022-07-27T12:20:34.292Z,6.53
2022-07-27T12:23:08.690Z,6.55
2022-07-27T12:25:36.583Z,7.03
2022-07-27T12:28:15.536Z,8.38
2022-07-27T12:30:52.088Z,6.60
2022-07-27T12:33:24.857Z,6.78
2022-07-27T12:35:51.550Z,7.13
2022-07-27T12:38:18.718Z,9.40
2022-07-27T12:40:46.543Z,7.28
2022-07-27T12:43:19.706Z,6.60
2022-07-27T12:45:48.191Z,6.45
2022-07-27T12:48:24.430Z,6.57
2022-07-27T12:51:05.374Z,7.13
2022-07-27T12:53:34.800Z,7.57
2022-07-27T12:56:05.625Z,9.13
2022-07-27T12:58:32.838Z,6.57
2022-07-27T13:00:59.676Z,7.30
2022-07-27T13:03:26.989Z,6.75
2022-07-27T13:05:53.636Z,6.57
2022-07-27T13:08:20.321Z,6.72
2022-07-27T13:10:48.467Z,7.18
2022-07-27T13:13:15.182Z,6.50
2022-07-27T13:15:41.858Z,6.72
2022-07-27T13:18:08.625Z,6.68
2022-07-27T13:20:35.982Z,6.45
2022-07-27T13:23:02.700Z,6.28
2022-07-27T13:25:29.361Z,5.93
2022-07-27T13:27:56.126Z,6.32
2022-07-27T13:30:24.524Z,6.97
2022-07-27T13:32:51.248Z,6.50
2022-07-27T13:35:17.996Z,6.47
2022-07-27T13:37:45.113Z,6.68
2022-07-27T13:40:12.090Z,6.60
2022-07-27T13:42:38.925Z,7.40
2022-07-27T13:45:11.406Z,6.35
2022-07-27T13:47:42.511Z,7.03
2022-07-27T13:50:18.277Z,6.55
2022-07-27T13:52:48.386Z,6.40
2022-07-27T13:55:16.598Z,5.95
2022-07-27T13:57:44.126Z,6.63
2022-07-27T14:00:11.928Z,5.85
2022-07-27T14:02:39.855Z,6.35
2022-07-27T14:05:09.347Z,5.70
2022-07-27T14:07:39.514Z,6.20
2022-07-27T14:10:25.473Z,5.82
2022-07-27T14:12:56.833Z,5.93
2022-07-27T14:15:25.341Z,5.00
2022-07-27T14:17:51.971Z,5.82
2022-07-27T14:20:18.712Z,6.10
2022-07-27T14:22:45.391Z,6.15
2022-07-27T14:25:12.367Z,5.75
2022-07-27T14:27:39.081Z,6.28
2022-07-27T14:30:09.250Z,5.57
2022-07-27T14:32:36.405Z,5.65
2022-07-27T14:35:03.925Z,5.68
2022-07-27T14:37:30.712Z,5.63
2022-07-27T14:39:57.653Z,6.05
2022-07-27T14:42:25.150Z,5.90
2022-07-27T14:44:52.885Z,6.18
2022-07-27T14:47:19.659Z,5.95
2022-07-27T14:49:46.612Z,6.07
2022-07-27T14:52:13.658Z,5.95
2022-07-27T14:54:45.278Z,4.80
2022-07-27T14:57:12.690Z,5.20
2022-07-27T14:59:39.665Z,4.82
2022-07-27T15:02:07.422Z,4.63
2022-07-27T15:04:34.296Z,4.78
2022-07-27T15:07:02.022Z,4.35
2022-07-27T15:09:30.397Z,4.22
2022-07-27T15:11:58.946Z,3.15
2022-07-27T15:14:26.144Z,3.90
2022-07-27T15:16:53.747Z,3.40
2022-07-27T15:19:20.611Z,3.50
2022-07-27T15:21:47.296Z,3.72
2022-07-27T15:24:14.074Z,3.72
2022-07-27T15:26:40.786Z,3.78
2022-07-27T15:29:07.561Z,3.50
2022-07-27T15:31:34.254Z,3.90
2022-07-27T15:34:01.750Z,3.45
2022-07-27T15:36:32.344Z,3.38
2022-07-27T15:39:00.673Z,3.20
2022-07-27T15:41:27.437Z,3.58
2022-07-27T15:43:54.175Z,3.30
2022-07-27T15:46:27.015Z,3.72
2022-07-27T15:48:54.453Z,3.58
2022-07-27T15:51:21.181Z,3.78
2022-07-27T15:53:47.836Z,3.78
2022-07-27T15:56:14.472Z,4.35
2022-07-27T15:58:41.144Z,4.45
2022-07-27T16:01:08.569Z,4.28
2022-07-27T16:03:38.943Z,3.92
2022-07-27T16:06:05.772Z,4.45
2022-07-27T16:08:32.537Z,4.65
2022-07-27T16:10:59.182Z,4.47
2022-07-27T16:13:26.061Z,4.25
2022-07-27T16:16:12.099Z,3.83
2022-07-27T16:18:39.344Z,3.63
2022-07-27T16:21:07.229Z,4.07
2022-07-27T16:23:34.121Z,3.25
2022-07-27T16:26:05.682Z,3.70
2022-07-27T16:28:35.707Z,4.47
2022-07-27T16:31:04.942Z,4.93
2022-07-27T16:33:31.761Z,5.13
2022-07-27T16:35:58.473Z,4.05
2022-07-27T16:38:25.642Z,4.95
2022-07-27T16:40:52.396Z,5.18
2022-07-27T16:43:19.275Z,6.88
2022-07-27T16:45:45.862Z,6.18
2022-07-27T16:48:12.952Z,6.45
2022-07-27T16:50:40.517Z,6.07
2022-07-27T16:53:11.064Z,5.78
2022-07-27T16:55:37.742Z,6.68
2022-07-27T16:58:05.247Z,7.07
2022-07-27T17:00:35.206Z,6.32
2022-07-27T17:03:06.341Z,6.75
2022-07-27T17:05:33.177Z,6.38
2022-07-27T17:07:59.973Z,6.47
2022-07-27T17:10:27.612Z,7.50
2022-07-27T17:12:54.822Z,6.63
2022-07-27T17:15:22.522Z,6.53
2022-07-27T17:17:49.186Z,6.72
2022-07-27T17:20:16.009Z,6.22
2022-07-27T17:22:55.430Z,6.32
2022-07-27T17:25:22.188Z,6.65
2022-07-27T17:27:49.157Z,6.28
2022-07-27T17:30:16.201Z,6.15
2022-07-27T17:32:42.954Z,6.63
2022-07-27T17:35:09.770Z,6.70
2022-07-27T17:38:03.536Z,6.13
2022-07-27T17:40:23.233Z,6.20
2022-07-27T17:42:52.305Z,6.30
2022-07-27T17:45:18.916Z,6.10
2022-07-27T17:47:45.590Z,5.75
2022-07-27T17:50:12.356Z,6.30
2022-07-27T17:52:39.097Z,6.35
2022-07-27T17:55:06.353Z,6.00
2022-07-27T17:57:32.986Z,6.68
2022-07-27T17:59:59.675Z,6.18
2022-07-27T18:02:26.472Z,6.82
2022-07-27T18:04:53.344Z,7.18
2022-07-27T18:07:20.124Z,6.10
2022-07-27T18:09:46.744Z,6.63
2022-07-27T18:12:13.425Z,7.00
2022-07-27T18:15:00.005Z,6.32
2022-07-27T18:17:26.699Z,6.10
2022-07-27T18:19:53.375Z,6.13
2022-07-27T18:22:20.955Z,6.03
2022-07-27T18:24:47.684Z,6.20
2022-07-27T18:27:14.354Z,6.35
2022-07-27T18:29:42.958Z,6.45
2022-07-27T18:32:09.602Z,6.07
2022-07-27T18:34:37.206Z,6.00
2022-07-27T18:37:03.922Z,5.60
2022-07-27T18:39:33.926Z,7.43
2022-07-27T18:42:03.876Z,7.03
2022-07-27T18:44:38.289Z,8.10
2022-07-27T18:47:05.798Z,7.30
2022-07-27T18:49:32.470Z,7.30
2022-07-27T18:51:59.175Z,6.78
2022-07-27T18:54:25.883Z,6.28
2022-07-27T18:56:52.519Z,5.43
2022-07-27T18:59:19.327Z,5.35
2022-07-27T19:01:46.083Z,7.10
2022-07-27T19:04:15.761Z,4.85
2022-07-27T19:06:44.663Z,8.23
2022-07-27T19:09:13.287Z,6.82
2022-07-27T19:11:40.322Z,6.63
2022-07-27T19:14:07.112Z,7.72
2022-07-27T19:16:35.739Z,6.97
2022-07-27T19:19:03.181Z,6.20
2022-07-27T19:21:30.850Z,6.05
2022-07-27T19:23:57.685Z,8.20
2022-07-27T19:26:24.371Z,10.57
2022-07-27T19:28:51.005Z,11.13
2022-07-27T19:31:22.766Z,13.02
2022-07-27T19:33:51.141Z,14.48
2022-07-27T19:36:18.500Z,14.98
2022-07-27T19:38:45.131Z,18.58
2022-07-27T19:41:11.872Z,16.60
2022-07-27T19:43:38.522Z,9.05
2022-07-27T19:46:05.478Z,8.98
2022-07-27T19:48:32.159Z,8.52
2022-07-27T19:51:04.701Z,6.55
2022-07-27T19:53:35.489Z,6.60
2022-07-27T19:56:02.469Z,7.97
2022-07-27T19:58:29.687Z,5.95
2022-07-27T20:00:56.567Z,5.28
2022-07-27T20:03:23.673Z,5.78
2022-07-27T20:05:50.866Z,6.43
2022-07-27T20:08:17.728Z,5.93
2022-07-27T20:10:44.525Z,5.68
2022-07-27T20:13:11.212Z,6.63
2022-07-27T20:15:37.921Z,6.30
2022-07-27T20:18:05.179Z,5.97
2022-07-27T20:20:31.789Z,8.05
2022-07-27T20:22:58.586Z,7.18
2022-07-27T20:25:25.343Z,6.00
2022-07-27T20:27:52.496Z,5.97
2022-07-27T20:30:20.078Z,5.65
2022-07-27T20:32:49.019Z,5.78
2022-07-27T20:35:16.990Z,6.50
2022-07-27T20:37:45.552Z,9.95
2022-07-27T20:40:12.978Z,6.00
2022-07-27T20:42:43.955Z,5.97
2022-07-27T20:45:12.827Z,5.70
2022-07-27T20:47:39.844Z,6.82
2022-07-27T20:50:09.065Z,7.25
2022-07-27T20:52:36.205Z,6.35
2022-07-27T20:55:02.953Z,6.25
2022-07-27T20:57:29.631Z,6.47
2022-07-27T20:59:56.315Z,7.20
2022-07-27T21:02:22.996Z,7.47
2022-07-27T21:04:49.757Z,7.20
2022-07-27T21:07:16.383Z,6.55
2022-07-27T21:09:43.014Z,8.23
2022-07-27T21:12:09.686Z,8.30
2022-07-27T21:14:36.400Z,6.20
2022-07-27T21:17:03.137Z,6.47
2022-07-27T21:19:30.206Z,7.50
2022-07-27T21:21:56.812Z,6.05
2022-07-27T21:24:23.578Z,8.52
2022-07-27T21:26:51.306Z,7.63
2022-07-27T21:29:19.720Z,6.57
2022-07-27T21:31:49.009Z,7.95
2022-07-27T21:34:18.879Z,7.47
2022-07-27T21:36:46.377Z,8.10
2022-07-27T21:39:13.612Z,7.35
2022-07-27T21:41:40.404Z,7.20
2022-07-27T21:44:07.091Z,6.88
2022-07-27T21:46:33.886Z,7.57
2022-07-27T21:49:00.541Z,6.30
2022-07-27T21:51:27.330Z,6.88
2022-07-27T21:53:54.012Z,5.70
2022-07-27T21:56:20.691Z,6.55
2022-07-27T21:58:48.047Z,6.78
2022-07-27T22:01:16.190Z,6.57
2022-07-27T22:03:43.649Z,6.72
2022-07-27T22:06:11.033Z,5.55
2022-07-27T22:08:37.880Z,6.88
2022-07-27T22:11:05.335Z,7.28
2022-07-27T22:13:32.356Z,6.00
2022-07-27T22:15:59.218Z,6.30
2022-07-27T22:18:25.932Z,6.43
2022-07-27T22:20:52.672Z,7.65
2022-07-27T22:23:19.344Z,6.07
2022-07-27T22:25:46.445Z,6.03
2022-07-27T22:28:13.269Z,7.30
2022-07-27T22:30:40.355Z,6.53
2022-07-27T22:33:08.125Z,6.00
2022-07-27T22:35:34.913Z,6.43
2022-07-27T22:38:02.089Z,5.90
2022-07-27T22:40:28.730Z,6.43
2022-07-27T22:42:55.393Z,6.28
2022-07-27T22:45:22.472Z,6.55
2022-07-27T22:47:49.253Z,6.30
2022-07-27T22:50:18.238Z,6.07
2022-07-27T22:52:45.186Z,6.30
2022-07-27T22:55:11.899Z,6.75
2022-07-27T22:57:38.515Z,6.57
2022-07-27T23:00:07.837Z,6.40
2022-07-27T23:02:34.623Z,7.13
2022-07-27T23:05:01.315Z,6.63
2022-07-27T23:07:27.984Z,6.55
2022-07-27T23:09:56.153Z,7.10
2022-07-27T23:12:24.426Z,6.60
2022-07-27T23:14:51.043Z,7.03
2022-07-27T23:17:18.166Z,6.47
2022-07-27T23:19:44.849Z,6.57
2022-07-27T23:22:11.758Z,6.60
2022-07-27T23:24:40.973Z,6.10
2022-07-27T23:27:08.238Z,6.75
2022-07-27T23:29:34.824Z,5.85
2022-07-27T23:32:03.427Z,6.07
2022-07-27T23:34:30.175Z,6.25
2022-07-27T23:36:56.883Z,6.30
2022-07-27T23:39:23.523Z,6.45
2022-07-27T23:41:50.457Z,6.40
2022-07-27T23:44:17.733Z,7.07
2022-07-27T23:46:44.599Z,6.70
2022-07-27T23:49:11.599Z,7.18
2022-07-27T23:51:38.343Z,7.40
2022-07-27T23:54:05.245Z,7.07
2022-07-27T23:56:31.887Z,7.28
2022-07-27T23:58:58.525Z,7.10
